createdAt,value
2024-04-21T00:01:35.936Z,6.05
2024-04-21T00:04:02.926Z,6.43
2024-04-21T00:06:30.869Z,5.63
2024-04-21T00:08:58.298Z,5.28
2024-04-21T00:11:25.524Z,5.47
2024-04-21T00:13:52.388Z,4.95
2024-04-21T00:16:19.253Z,6.05
2024-04-21T00:18:46.228Z,5.85
2024-04-21T00:21:13.590Z,6.10
2024-04-21T00:23:40.468Z,4.93
2024-04-21T00:26:07.334Z,5.95
2024-04-21T00:28:34.152Z,5.50
2024-04-21T00:31:01.048Z,5.05
2024-04-21T00:33:28.109Z,5.60
2024-04-21T00:35:54.999Z,6.13
2024-04-21T00:38:21.805Z,5.90
2024-04-21T00:40:49.027Z,5.18
2024-04-21T00:43:16.182Z,5.15
2024-04-21T00:45:46.774Z,5.82
2024-04-21T00:48:16.745Z,6.88
2024-04-21T00:50:51.474Z,5.23
2024-04-21T00:53:19.314Z,4.65
2024-04-21T00:55:46.328Z,5.20
2024-04-21T00:58:14.393Z,5.82
2024-04-21T01:00:42.040Z,4.85
2024-04-21T01:03:09.019Z,5.72
2024-04-21T01:05:35.898Z,5.53
2024-04-21T01:08:02.792Z,5.82
2024-04-21T01:10:29.633Z,5.82
2024-04-21T01:12:56.455Z,4.97
2024-04-21T01:15:23.367Z,5.40
2024-04-21T01:17:50.879Z,4.85
2024-04-21T01:20:18.783Z,4.80
2024-04-21T01:22:49.683Z,4.85
2024-04-21T01:27:43.812Z,4.60
2024-04-21T01:30:11.723Z,4.72
2024-04-21T01:32:40.748Z,4.95
2024-04-21T01:35:07.895Z,4.53
2024-04-21T01:37:39.366Z,4.82
2024-04-21T01:40:07.293Z,4.90
2024-04-21T01:42:34.339Z,5.00
2024-04-21T01:45:01.194Z,5.53
2024-04-21T01:47:28.170Z,5.07
2024-04-21T01:49:55.029Z,4.80
2024-04-21T01:52:21.895Z,4.95
2024-04-21T01:54:48.777Z,4.80
2024-04-21T01:57:15.613Z,4.97
2024-04-21T01:59:42.975Z,5.30
2024-04-21T02:02:09.947Z,4.80
2024-04-21T02:04:36.840Z,4.70
2024-04-21T02:07:03.959Z,4.53
2024-04-21T02:09:33.053Z,4.50
2024-04-21T02:11:59.794Z,4.75
2024-04-21T02:14:26.550Z,4.40
2024-04-21T02:16:53.424Z,5.38
2024-04-21T02:19:20.330Z,4.72
2024-04-21T02:21:47.246Z,4.90
2024-04-21T02:24:14.657Z,5.00
2024-04-21T02:26:41.506Z,5.03
2024-04-21T02:29:08.746Z,4.40
2024-04-21T02:31:35.584Z,4.80
2024-04-21T02:34:02.495Z,4.93
2024-04-21T02:36:29.244Z,4.75
2024-04-21T02:38:56.994Z,4.72
2024-04-21T02:41:24.816Z,4.80
2024-04-21T02:43:51.585Z,5.28
2024-04-21T02:46:18.925Z,5.32
2024-04-21T02:48:45.879Z,4.80
2024-04-21T02:51:13.753Z,5.07
2024-04-21T02:53:40.540Z,4.93
2024-04-21T02:56:07.423Z,5.00
2024-04-21T02:58:34.244Z,6.65
2024-04-21T03:01:05.841Z,4.97
2024-04-21T03:03:32.815Z,4.45
2024-04-21T03:05:59.882Z,5.22
2024-04-21T03:08:26.902Z,4.47
2024-04-21T03:10:54.019Z,4.80
2024-04-21T03:13:22.349Z,5.10
2024-04-21T03:15:52.549Z,4.63
2024-04-21T03:18:19.461Z,5.30
2024-04-21T03:20:59.599Z,4.40
2024-04-21T03:23:27.131Z,4.57
2024-04-21T03:25:54.058Z,4.40
2024-04-21T03:28:22.072Z,4.47
2024-04-21T03:31:01.848Z,4.93
2024-04-21T03:33:29.183Z,4.25
2024-04-21T03:36:04.349Z,5.35
2024-04-21T03:38:32.249Z,4.43
2024-04-21T03:40:59.097Z,5.38
2024-04-21T03:43:26.009Z,5.05
2024-04-21T03:45:54.132Z,4.45
2024-04-21T03:48:20.954Z,4.80
2024-04-21T03:50:48.687Z,4.50
2024-04-21T03:53:18.786Z,5.07
2024-04-21T03:55:45.806Z,4.18
2024-04-21T03:58:13.340Z,4.10
2024-04-21T04:00:40.364Z,4.18
2024-04-21T04:03:07.181Z,4.40
2024-04-21T04:05:33.968Z,4.30
2024-04-21T04:08:00.751Z,4.40
2024-04-21T04:10:27.610Z,4.60
2024-04-21T04:12:54.439Z,4.70
2024-04-21T04:15:21.224Z,5.10
2024-04-21T04:17:48.123Z,4.20
2024-04-21T04:20:15.234Z,4.97
2024-04-21T04:22:42.028Z,4.80
2024-04-21T04:25:10.654Z,4.95
2024-04-21T04:27:38.421Z,5.43
2024-04-21T04:30:06.023Z,5.20
2024-04-21T04:32:33.946Z,5.03
2024-04-21T04:35:01.897Z,4.97
2024-04-21T04:37:28.906Z,6.20
2024-04-21T04:39:57.212Z,5.30
2024-04-21T04:42:25.086Z,4.97
2024-04-21T04:44:51.978Z,5.03
2024-04-21T04:47:18.849Z,6.88
2024-04-21T04:49:45.798Z,5.28
2024-04-21T04:52:12.702Z,5.22
2024-04-21T04:54:39.816Z,4.93
2024-04-21T04:57:06.609Z,5.30
2024-04-21T04:59:33.418Z,5.30
2024-04-21T05:02:00.198Z,4.95
2024-04-21T05:04:27.266Z,4.53
2024-04-21T05:06:54.157Z,4.72
2024-04-21T05:09:21.042Z,4.50
2024-04-21T05:11:47.908Z,5.10
2024-04-21T05:14:15.692Z,5.35
2024-04-21T05:16:46.424Z,4.90
2024-04-21T05:19:13.724Z,4.63
2024-04-21T05:21:40.549Z,4.35
2024-04-21T05:24:07.367Z,4.32
2024-04-21T05:26:34.279Z,5.57
2024-04-21T05:29:01.234Z,4.75
2024-04-21T05:31:28.080Z,5.13
2024-04-21T05:33:54.997Z,4.72
2024-04-21T05:36:21.814Z,6.03
2024-04-21T05:38:48.573Z,4.65
2024-04-21T05:41:15.367Z,5.50
2024-04-21T05:43:42.124Z,5.72
2024-04-21T05:46:09.099Z,6.93
2024-04-21T05:48:36.033Z,6.03
2024-04-21T05:51:02.919Z,5.50
2024-04-21T05:53:30.842Z,4.70
2024-04-21T05:55:57.741Z,4.90
2024-04-21T05:58:24.519Z,5.70
2024-04-21T06:00:51.526Z,5.93
2024-04-21T06:03:19.359Z,4.63
2024-04-21T06:05:46.405Z,5.60
2024-04-21T06:08:13.479Z,7.50
2024-04-21T06:10:40.305Z,5.80
2024-04-21T06:13:09.049Z,5.45
2024-04-21T06:15:36.877Z,5.38
2024-04-21T06:18:04.119Z,5.55
2024-04-21T06:20:34.027Z,4.90
2024-04-21T06:23:03.497Z,8.15
2024-04-21T06:25:30.470Z,5.38
2024-04-21T06:27:57.413Z,4.68
2024-04-21T06:30:24.357Z,4.65
2024-04-21T06:32:51.283Z,4.80
2024-04-21T06:35:18.160Z,5.30
2024-04-21T06:37:44.991Z,5.28
2024-04-21T06:40:13.965Z,5.20
2024-04-21T06:42:42.358Z,5.15
2024-04-21T06:45:09.257Z,4.97
2024-04-21T06:47:36.228Z,5.75
2024-04-21T06:50:05.023Z,5.18
2024-04-21T06:52:31.840Z,5.10
2024-04-21T06:54:58.618Z,5.25
2024-04-21T06:57:25.426Z,5.03
2024-04-21T06:59:52.223Z,5.03
2024-04-21T07:02:19.180Z,5.28
2024-04-21T07:04:46.142Z,5.53
2024-04-21T07:07:14.756Z,5.53
2024-04-21T07:09:42.217Z,5.47
2024-04-21T07:12:09.132Z,6.25
2024-04-21T07:14:35.885Z,5.50
2024-04-21T07:17:02.679Z,5.55
2024-04-21T07:19:30.118Z,5.38
2024-04-21T07:21:59.208Z,5.55
2024-04-21T07:24:26.525Z,6.30
2024-04-21T07:26:53.487Z,6.18
2024-04-21T07:29:20.398Z,6.55
2024-04-21T07:31:47.295Z,8.70
2024-04-21T07:34:16.114Z,6.40
2024-04-21T07:36:42.916Z,6.65
2024-04-21T07:39:09.812Z,6.28
2024-04-21T07:41:37.226Z,5.78
2024-04-21T07:44:05.378Z,6.53
2024-04-21T07:46:32.182Z,6.30
2024-04-21T07:49:00.003Z,5.90
2024-04-21T07:51:30.572Z,5.90
2024-04-21T07:53:57.411Z,6.13
2024-04-21T07:56:24.300Z,5.25
2024-04-21T07:58:51.350Z,5.18
2024-04-21T08:01:20.198Z,5.25
2024-04-21T08:03:47.063Z,6.00
2024-04-21T08:06:14.006Z,6.97
2024-04-21T08:08:41.839Z,5.85
2024-04-21T08:11:08.925Z,9.07
2024-04-21T08:13:36.098Z,6.00
2024-04-21T08:16:04.170Z,5.68
2024-04-21T08:18:31.467Z,5.28
2024-04-21T08:21:00.730Z,6.70
2024-04-21T08:23:36.292Z,5.55
2024-04-21T08:26:04.572Z,5.35
2024-04-21T08:28:31.627Z,6.18
2024-04-21T08:30:58.658Z,9.35
2024-04-21T08:33:26.383Z,5.90
2024-04-21T08:35:57.034Z,6.22
2024-04-21T08:38:28.381Z,5.72
2024-04-21T08:40:55.254Z,6.13
2024-04-21T08:43:26.848Z,5.40
2024-04-21T08:45:56.840Z,7.38
2024-04-21T08:48:24.479Z,6.72
2024-04-21T08:50:53.405Z,5.82
2024-04-21T08:53:20.311Z,6.00
2024-04-21T08:55:48.958Z,5.75
2024-04-21T08:58:20.068Z,5.68
2024-04-21T09:00:47.403Z,9.40
2024-04-21T09:03:17.661Z,6.20
2024-04-21T09:05:44.875Z,7.15
2024-04-21T09:08:11.936Z,9.10
2024-04-21T09:10:39.268Z,6.47
2024-04-21T09:13:07.960Z,6.70
2024-04-21T09:15:34.784Z,6.45
2024-04-21T09:18:02.526Z,6.35
2024-04-21T09:20:33.140Z,5.30
2024-04-21T09:23:01.339Z,8.45
2024-04-21T09:25:28.342Z,5.75
2024-04-21T09:27:55.271Z,5.43
2024-04-21T09:30:23.291Z,5.50
2024-04-21T09:32:50.370Z,5.55
2024-04-21T09:35:18.788Z,5.45
2024-04-21T09:37:47.241Z,5.68
2024-04-21T09:40:16.447Z,5.45
2024-04-21T09:42:43.762Z,5.60
2024-04-21T09:45:10.579Z,5.68
2024-04-21T09:47:40.156Z,5.32
2024-04-21T09:50:10.519Z,5.72
2024-04-21T09:55:05.107Z,5.65
2024-04-21T09:57:35.790Z,5.65
2024-04-21T10:00:04.451Z,5.78
2024-04-21T10:02:39.003Z,6.85
2024-04-21T10:05:12.292Z,5.80
2024-04-21T10:07:39.809Z,6.50
2024-04-21T10:10:17.393Z,6.97
2024-04-21T10:12:44.916Z,6.20
2024-04-21T10:15:13.118Z,6.53
2024-04-21T10:17:40.005Z,7.40
2024-04-21T10:20:10.386Z,6.00
2024-04-21T10:22:40.278Z,5.60
2024-04-21T10:25:09.263Z,6.78
2024-04-21T10:27:36.077Z,5.90
2024-04-21T10:30:13.275Z,9.05
2024-04-21T10:32:40.111Z,5.80
2024-04-21T10:35:07.095Z,5.57
2024-04-21T10:37:34.079Z,6.35
2024-04-21T10:40:03.786Z,5.70
2024-04-21T10:42:34.449Z,5.75
2024-04-21T10:45:01.547Z,6.20
2024-04-21T10:47:28.640Z,6.30
2024-04-21T10:49:55.639Z,5.70
2024-04-21T10:52:22.556Z,6.00
2024-04-21T10:54:49.735Z,6.55
2024-04-21T10:57:16.741Z,5.78
2024-04-21T10:59:43.589Z,6.28
2024-04-21T11:02:10.495Z,6.50
2024-04-21T11:04:37.582Z,5.57
2024-04-21T11:07:05.207Z,6.80
2024-04-21T11:09:32.165Z,6.35
2024-04-21T11:11:59.042Z,6.43
2024-04-21T11:14:27.859Z,6.00
2024-04-21T11:16:54.845Z,5.50
2024-04-21T11:19:22.734Z,5.90
2024-04-21T11:21:49.634Z,5.60
2024-04-21T11:24:17.229Z,6.07
2024-04-21T11:26:44.063Z,6.05
2024-04-21T11:29:11.858Z,6.40
2024-04-21T11:31:38.725Z,6.05
2024-04-21T11:34:06.155Z,6.18
2024-04-21T11:36:34.581Z,5.82
2024-04-21T11:39:01.438Z,5.82
2024-04-21T11:41:30.705Z,5.72
2024-04-21T11:43:58.683Z,5.55
2024-04-21T11:46:25.920Z,5.80
2024-04-21T11:48:55.231Z,5.65
2024-04-21T11:51:22.472Z,6.18
2024-04-21T11:53:49.316Z,5.72
2024-04-21T11:56:16.267Z,5.40
2024-04-21T11:58:43.083Z,6.32
2024-04-21T12:01:10.109Z,6.00
2024-04-21T12:03:37.144Z,5.75
2024-04-21T12:06:04.484Z,5.70
2024-04-21T12:08:32.266Z,5.32
2024-04-21T12:10:59.142Z,5.50
2024-04-21T12:13:26.034Z,5.20
2024-04-21T12:15:53.036Z,5.50
2024-04-21T12:18:19.924Z,5.82
2024-04-21T12:20:46.891Z,6.00
2024-04-21T12:23:14.716Z,5.95
2024-04-21T12:25:41.670Z,6.00
2024-04-21T12:28:09.906Z,5.60
2024-04-21T12:30:40.498Z,5.13
2024-04-21T12:33:09.018Z,5.38
2024-04-21T12:35:36.086Z,5.50
2024-04-21T12:38:05.097Z,6.55
2024-04-21T12:40:32.046Z,7.95
2024-04-21T12:43:01.720Z,5.80
2024-04-21T12:45:28.581Z,6.10
2024-04-21T12:47:55.604Z,6.43
2024-04-21T12:50:22.796Z,5.88
2024-04-21T12:52:49.766Z,6.50
2024-04-21T12:55:16.596Z,5.90
2024-04-21T12:57:43.542Z,6.65
2024-04-21T13:00:10.824Z,6.90
2024-04-21T13:02:39.553Z,6.70
2024-04-21T13:05:07.473Z,6.57
2024-04-21T13:07:34.407Z,6.00
2024-04-21T13:10:01.343Z,6.32
2024-04-21T13:12:30.646Z,6.82
2024-04-21T13:14:57.933Z,6.40
2024-04-21T13:17:25.053Z,6.40
2024-04-21T13:19:52.188Z,6.30
2024-04-21T13:22:19.225Z,5.80
2024-04-21T13:24:46.126Z,7.25
2024-04-21T13:27:14.638Z,6.30
2024-04-21T13:29:43.422Z,6.15
2024-04-21T13:32:10.440Z,6.28
2024-04-21T13:34:38.722Z,7.00
2024-04-21T13:37:05.705Z,6.40
2024-04-21T13:39:32.547Z,6.65
2024-04-21T13:42:00.523Z,6.38
2024-04-21T13:44:27.361Z,6.60
2024-04-21T13:46:54.298Z,5.97
2024-04-21T13:49:21.106Z,6.20
2024-04-21T13:51:48.169Z,5.82
2024-04-21T13:54:16.034Z,6.32
2024-04-21T13:56:43.226Z,6.50
2024-04-21T13:59:10.063Z,6.40
2024-04-21T14:01:37.015Z,5.82
2024-04-21T14:04:06.229Z,5.93
2024-04-21T14:06:33.776Z,6.10
2024-04-21T14:09:01.946Z,6.07
2024-04-21T14:11:29.344Z,6.28
2024-04-21T14:13:59.072Z,6.10
2024-04-21T14:16:27.469Z,6.50
2024-04-21T14:18:56.270Z,5.97
2024-04-21T14:21:24.828Z,6.40
2024-04-21T14:23:51.659Z,6.25
2024-04-21T14:26:18.449Z,6.40
2024-04-21T14:28:46.127Z,6.00
2024-04-21T14:31:13.159Z,6.15
2024-04-21T14:33:41.190Z,5.82
2024-04-21T14:36:08.137Z,6.60
2024-04-21T14:38:35.046Z,7.10
2024-04-21T14:41:01.913Z,6.85
2024-04-21T14:43:29.856Z,6.57
2024-04-21T14:45:57.721Z,7.25
2024-04-21T14:48:24.618Z,6.10
2024-04-21T14:50:56.105Z,6.20
2024-04-21T14:53:26.360Z,8.23
2024-04-21T14:56:00.853Z,6.30
2024-04-21T14:58:28.221Z,7.18
2024-04-21T15:00:55.363Z,7.65
2024-04-21T15:03:23.625Z,6.60
2024-04-21T15:05:50.706Z,6.90
2024-04-21T15:08:18.049Z,6.75
2024-04-21T15:10:44.984Z,6.38
2024-04-21T15:13:14.443Z,6.75
2024-04-21T15:15:41.663Z,6.47
2024-04-21T15:18:08.565Z,6.55
2024-04-21T15:20:35.413Z,6.95
2024-04-21T15:23:02.252Z,6.65
2024-04-21T15:25:30.434Z,6.78
2024-04-21T15:27:57.336Z,6.60
2024-04-21T15:30:24.130Z,6.13
2024-04-21T15:32:51.048Z,8.57
2024-04-21T15:35:17.924Z,7.60
2024-04-21T15:37:44.759Z,6.60
2024-04-21T15:40:14.081Z,6.40
2024-04-21T15:42:43.685Z,6.47
2024-04-21T15:45:11.053Z,6.40
2024-04-21T15:47:38.193Z,6.70
2024-04-21T15:50:06.013Z,6.50
2024-04-21T15:52:33.935Z,7.15
2024-04-21T15:55:04.285Z,9.80
2024-04-21T15:57:31.347Z,7.07
2024-04-21T16:00:00.043Z,6.43
2024-04-21T16:02:27.794Z,7.22
2024-04-21T16:05:00.912Z,7.00
2024-04-21T16:07:28.384Z,6.40
2024-04-21T16:09:58.847Z,6.03
2024-04-21T16:12:26.219Z,6.00
2024-04-21T16:14:53.081Z,6.15
2024-04-21T16:17:20.297Z,6.00
2024-04-21T16:19:47.390Z,6.20
2024-04-21T16:22:14.246Z,6.15
2024-04-21T16:24:42.041Z,9.15
2024-04-21T16:27:09.872Z,8.43
2024-04-21T16:29:36.705Z,6.70
2024-04-21T16:32:05.122Z,6.50
2024-04-21T16:34:32.932Z,6.80
2024-04-21T16:37:00.056Z,7.10
2024-04-21T16:39:27.406Z,6.60
2024-04-21T16:41:54.440Z,8.93
2024-04-21T16:44:21.502Z,7.60
2024-04-21T16:46:50.367Z,7.57
2024-04-21T16:49:24.182Z,7.32
2024-04-21T16:51:52.181Z,6.70
2024-04-21T16:54:20.555Z,7.03
2024-04-21T16:56:50.397Z,6.70
2024-04-21T16:59:17.608Z,7.68
2024-04-21T17:01:44.931Z,8.73
2024-04-21T17:04:17.424Z,8.88
2024-04-21T17:06:45.432Z,7.90
2024-04-21T17:09:12.717Z,7.32
2024-04-21T17:11:39.781Z,7.50
2024-04-21T17:14:06.829Z,7.10
2024-04-21T17:16:33.843Z,7.60
2024-04-21T17:19:00.837Z,7.10
2024-04-21T17:21:27.719Z,6.60
2024-04-21T17:23:54.542Z,6.22
2024-04-21T17:26:21.407Z,6.10
2024-04-21T17:28:48.435Z,7.20
2024-04-21T17:31:15.297Z,6.85
2024-04-21T17:33:43.259Z,6.90
2024-04-21T17:36:10.345Z,7.60
2024-04-21T17:38:37.324Z,7.28
2024-04-21T17:41:05.188Z,6.93
2024-04-21T17:43:33.107Z,7.85
2024-04-21T17:46:00.144Z,6.65
2024-04-21T17:48:29.603Z,7.10
2024-04-21T17:50:57.878Z,7.00
2024-04-21T17:53:24.635Z,7.07
2024-04-21T17:55:51.574Z,8.00
2024-04-21T17:58:18.570Z,7.88
2024-04-21T18:00:45.480Z,7.68
2024-04-21T18:03:12.552Z,7.20
2024-04-21T18:05:39.417Z,6.97
2024-04-21T18:08:06.451Z,6.75
2024-04-21T18:10:33.468Z,6.68
2024-04-21T18:13:00.697Z,7.10
2024-04-21T18:15:27.435Z,6.65
2024-04-21T18:17:55.276Z,7.10
2024-04-21T18:20:22.326Z,7.03
2024-04-21T18:22:49.265Z,6.90
2024-04-21T18:25:17.606Z,6.95
2024-04-21T18:27:44.498Z,6.95
2024-04-21T18:30:11.636Z,6.57
2024-04-21T18:32:38.554Z,6.85
2024-04-21T18:35:05.700Z,6.82
2024-04-21T18:37:32.603Z,6.80
2024-04-21T18:40:02.711Z,6.90
2024-04-21T18:42:29.549Z,9.52
2024-04-21T18:44:58.927Z,8.73
2024-04-21T18:47:29.854Z,8.00
2024-04-21T18:49:57.052Z,7.57
2024-04-21T18:52:24.417Z,7.28
2024-04-21T18:54:51.469Z,7.28
2024-04-21T18:57:18.297Z,6.70
2024-04-21T18:59:45.153Z,6.97
2024-04-21T19:02:14.812Z,6.97
2024-04-21T19:04:41.714Z,6.60
2024-04-21T19:07:08.816Z,7.38
2024-04-21T19:09:35.970Z,6.93
2024-04-21T19:12:02.978Z,6.63
2024-04-21T19:14:30.322Z,7.25
2024-04-21T19:16:57.695Z,7.00
2024-04-21T19:19:25.112Z,6.65
2024-04-21T19:21:52.690Z,7.05
2024-04-21T19:24:19.988Z,7.47
2024-04-21T19:26:48.033Z,7.00
2024-04-21T19:29:14.889Z,6.78
2024-04-21T19:31:41.800Z,7.32
2024-04-21T19:34:11.003Z,7.03
2024-04-21T19:36:37.893Z,9.38
2024-04-21T19:39:05.053Z,9.75
2024-04-21T19:41:31.970Z,8.55
2024-04-21T19:44:00.870Z,7.85
2024-04-21T19:46:27.944Z,8.18
2024-04-21T19:48:54.888Z,7.63
2024-04-21T19:51:21.789Z,7.82
2024-04-21T19:53:50.246Z,7.65
2024-04-21T19:56:18.279Z,6.93
2024-04-21T19:58:45.176Z,7.78
2024-04-21T20:01:12.617Z,7.45
2024-04-21T20:03:39.551Z,8.70
2024-04-21T20:06:12.205Z,9.82
2024-04-21T20:08:39.639Z,9.55
2024-04-21T20:11:10.434Z,8.48
2024-04-21T20:13:37.573Z,8.10
2024-04-21T20:16:23.439Z,7.50
2024-04-21T20:18:51.879Z,7.18
2024-04-21T20:21:19.008Z,7.43
2024-04-21T20:23:45.979Z,7.35
2024-04-21T20:26:14.194Z,7.18
2024-04-21T20:28:42.853Z,7.22
2024-04-21T20:31:17.198Z,7.18
2024-04-21T20:33:45.905Z,6.90
2024-04-21T20:36:22.897Z,7.82
2024-04-21T20:38:51.329Z,7.47
2024-04-21T20:41:22.692Z,7.80
2024-04-21T20:43:50.306Z,7.38
2024-04-21T20:46:21.798Z,8.18
2024-04-21T20:48:49.954Z,7.50
2024-04-21T20:51:16.984Z,8.15
2024-04-21T20:54:22.792Z,7.90
2024-04-21T20:56:49.651Z,8.50
2024-04-21T20:59:16.572Z,7.80
2024-04-21T21:01:44.542Z,8.13
2024-04-21T21:04:13.971Z,8.98
2024-04-21T21:06:40.908Z,7.88
2024-04-21T21:09:07.695Z,8.18
2024-04-21T21:11:34.567Z,8.77
2024-04-21T21:14:01.794Z,8.25
2024-04-21T21:16:28.834Z,8.65
2024-04-21T21:18:56.862Z,9.13
2024-04-21T21:21:23.782Z,8.40
2024-04-21T21:23:51.107Z,7.63
2024-04-21T21:26:20.314Z,8.85
2024-04-21T21:28:47.570Z,8.68
2024-04-21T21:31:14.610Z,8.65
2024-04-21T21:33:41.446Z,8.98
2024-04-21T21:36:08.522Z,8.95
2024-04-21T21:38:41.227Z,9.45
2024-04-21T21:41:08.158Z,8.75
2024-04-21T21:43:36.167Z,9.00
2024-04-21T21:46:03.120Z,9.68
2024-04-21T21:48:30.155Z,9.13
2024-04-21T21:50:57.127Z,8.95
2024-04-21T21:53:25.061Z,8.82
2024-04-21T21:55:53.968Z,8.70
2024-04-21T21:58:20.864Z,8.57
2024-04-21T22:00:47.830Z,8.00
2024-04-21T22:03:14.844Z,8.60
2024-04-21T22:05:41.693Z,8.82
2024-04-21T22:08:08.666Z,7.90
2024-04-21T22:10:37.599Z,7.90
2024-04-21T22:13:04.697Z,7.82
2024-04-21T22:15:31.605Z,8.32
2024-04-21T22:17:59.203Z,8.43
2024-04-21T22:20:26.080Z,8.90
2024-04-21T22:22:53.135Z,8.20
2024-04-21T22:25:20.460Z,8.57
2024-04-21T22:27:50.618Z,8.73
2024-04-21T22:30:17.655Z,7.87
2024-04-21T22:32:48.130Z,8.23
2024-04-21T22:35:17.464Z,8.27
2024-04-21T22:37:44.535Z,8.40
2024-04-21T22:40:11.434Z,8.50
2024-04-21T22:42:40.837Z,8.48
2024-04-21T22:47:35.996Z,7.03
2024-04-21T22:50:02.881Z,8.02
2024-04-21T22:52:29.755Z,8.50
2024-04-21T22:54:56.702Z,8.52
2024-04-21T22:57:23.831Z,8.65
2024-04-21T22:59:51.649Z,7.72
2024-04-21T23:02:18.603Z,8.10
2024-04-21T23:04:45.424Z,7.95
2024-04-21T23:07:12.251Z,8.00
2024-04-21T23:09:40.000Z,8.15
2024-04-21T23:12:08.372Z,8.10
2024-04-21T23:14:36.246Z,7.55
2024-04-21T23:17:04.180Z,7.55
2024-04-21T23:19:31.055Z,8.05
2024-04-21T23:21:57.794Z,7.75
2024-04-21T23:24:24.569Z,8.30
2024-04-21T23:26:51.404Z,7.50
2024-04-21T23:29:19.275Z,7.40
2024-04-21T23:31:46.101Z,7.47
2024-04-21T23:34:13.123Z,7.82
2024-04-21T23:36:40.037Z,7.28
2024-04-21T23:39:07.003Z,7.88
2024-04-21T23:41:33.752Z,7.72
2024-04-21T23:44:00.555Z,7.93
2024-04-21T23:46:27.406Z,7.18
2024-04-21T23:48:55.140Z,7.82
2024-04-21T23:51:21.869Z,7.28
2024-04-21T23:53:48.824Z,7.88
2024-04-21T23:56:16.659Z,7.53
2024-04-21T23:58:43.528Z,7.97
